Time;durP1;ratioP1;P1;durP2;ratioP2;P2;SDS_P1;SDS_P2;PMS_P1;PMS_P2;Temp;Humidity;BMP_temperature;BMP_pressure;BME280_temperature;BME280_humidity;BME280_pressure;Samples;Min_cycle;Max_cycle;Signal;HPM_P1;HPM_P2
2022/04/20 00:01:06;;;;;;;3.87;2.27;;;;;;;;;;4510880;28;20693;-66
2022/04/20 00:03:16;;;;;;;3.37;2.00;;;;;;;;;;4531426;28;20045;-66
2022/04/20 00:05:27;;;;;;;3.30;2.00;;;;;;;;;;4531882;28;20042;-66
2022/04/20 00:07:38;;;;;;;2.70;1.80;;;;;;;;;;4515522;28;20146;-66
2022/04/20 00:09:48;;;;;;;2.77;1.93;;;;;;;;;;4530012;28;20044;-66
2022/04/20 00:11:59;;;;;;;3.10;1.93;;;;;;;;;;4528768;28;20464;-66
2022/04/20 00:14:09;;;;;;;2.90;2.10;;;;;;;;;;4495641;28;20026;-66
2022/04/20 00:16:20;;;;;;;2.90;2.00;;;;;;;;;;4531597;28;20040;-65
2022/04/20 00:18:31;;;;;;;5.30;2.65;;;;;;;;;;4530179;28;20033;-66
2022/04/20 00:20:41;;;;;;;6.67;3.30;;;;;;;;;;4530513;28;20096;-66
2022/04/20 00:22:52;;;;;;;5.47;3.27;;;;;;;;;;4512845;28;20045;-66
2022/04/20 00:25:03;;;;;;;5.70;3.20;;;;;;;;;;4529911;28;20028;-66
2022/04/20 00:27:13;;;;;;;6.20;3.22;;;;;;;;;;4510498;28;20029;-66
2022/04/20 00:29:23;;;;;;;5.50;2.97;;;;;;;;;;4518902;28;20037;-66
2022/04/20 00:31:34;;;;;;;6.60;3.03;;;;;;;;;;4528722;28;20029;-66
2022/04/20 00:33:44;;;;;;;5.33;3.03;;;;;;;;;;4529758;28;20065;-66
2022/04/20 00:35:55;;;;;;;6.23;3.03;;;;;;;;;;4521155;28;20045;-66
2022/04/20 00:38:05;;;;;;;5.63;3.20;;;;;;;;;;4529145;28;20080;-66
2022/04/20 00:40:16;;;;;;;6.10;3.40;;;;;;;;;;4529826;28;20478;-66
2022/04/20 00:42:26;;;;;;;6.80;4.20;;;;;;;;;;4532459;28;20037;-66
2022/04/20 00:44:37;;;;;;;7.83;4.07;;;;;;;;;;4531200;28;20034;-67
2022/04/20 00:46:47;;;;;;;8.33;4.13;;;;;;;;;;4511446;28;20565;-66
2022/04/20 00:48:58;;;;;;;7.27;3.90;;;;;;;;;;4513297;28;22692;-66
2022/04/20 00:51:09;;;;;;;5.88;3.63;;;;;;;;;;4503205;28;20022;-66
2022/04/20 00:53:20;;;;;;;6.78;3.55;;;;;;;;;;4518976;28;20026;-66
2022/04/20 00:55:32;;;;;;;7.60;4.05;;;;;;;;;;4518256;28;20125;-66
2022/04/20 00:57:46;;;;;;;5.97;3.28;;;;;;;;;;4518299;28;20555;-66
2022/04/20 00:59:59;;;;;;;;;;;;;;;;;;4496622;28;20022;-66
2022/04/20 01:02:11;;;;;;;7.07;3.25;;;;;;;;;;4494639;28;19914;-66
2022/04/20 01:04:22;;;;;;;4.03;2.38;;;;;;;;;;4513861;28;20042;-66
2022/04/20 01:06:50;;;;;;;3.97;2.50;;;;;;;;;;4513773;28;20045;-66
2022/04/20 01:09:33;;;;;;;4.45;2.30;;;;;;;;;;4518535;28;20051;-66
2022/04/20 01:11:57;;;;;;;3.97;2.38;;;;;;;;;;4517551;28;20133;-66
2022/04/20 01:14:22;;;;;;;3.92;2.58;;;;;;;;;;4511978;28;20721;-66
2022/04/20 01:16:51;;;;;;;3.75;2.10;;;;;;;;;;4530641;28;20045;-66
2022/04/20 01:19:13;;;;;;;;;;;;;;;;;;4518258;28;20084;-66
2022/04/20 01:21:36;;;;;;;3.97;2.30;;;;;;;;;;4506307;28;20043;-66
2022/04/20 01:23:56;;;;;;;4.63;2.20;;;;;;;;;;4510249;28;20076;-66
2022/04/20 01:26:10;;;;;;;3.92;2.10;;;;;;;;;;4529354;28;20532;-66
2022/04/20 01:28:44;;;;;;;4.00;2.28;;;;;;;;;;4496718;28;20021;-66
2022/04/20 01:31:29;;;;;;;4.47;2.53;;;;;;;;;;4506123;28;21013;-66
2022/04/20 01:34:06;;;;;;;4.35;2.50;;;;;;;;;;4529161;28;20041;-66
2022/04/20 01:36:16;;;;;;;5.20;2.53;;;;;;;;;;4517777;28;20036;-66
2022/04/20 01:38:27;;;;;;;4.73;2.80;;;;;;;;;;4518039;28;20386;-66
2022/04/20 01:40:38;;;;;;;4.27;2.50;;;;;;;;;;4518491;28;20651;-66
2022/04/20 01:42:48;;;;;;;6.37;3.40;;;;;;;;;;4496527;28;20046;-66
2022/04/20 01:45:01;;;;;;;5.60;2.80;;;;;;;;;;4518002;28;20021;-66
2022/04/20 01:47:44;;;;;;;5.28;2.90;;;;;;;;;;4503498;28;20730;-66
2022/04/20 01:50:23;;;;;;;4.53;2.30;;;;;;;;;;4464251;28;20805;-66
2022/04/20 01:52:49;;;;;;;;;;;;;;;;;;4517313;28;20133;-67
2022/04/20 01:55:18;;;;;;;2.65;1.90;;;;;;;;;;4530475;28;19912;-66
2022/04/20 01:57:53;;;;;;;2.33;1.70;;;;;;;;;;4483999;28;20103;-66
2022/04/20 02:00:18;;;;;;;2.25;1.60;;;;;;;;;;4514347;28;20112;-66
2022/04/20 02:02:41;;;;;;;2.22;1.42;;;;;;;;;;4507482;28;20026;-66
2022/04/20 02:05:10;;;;;;;3.58;1.80;;;;;;;;;;4535982;28;20055;-66
2022/04/20 02:07:21;;;;;;;2.55;1.80;;;;;;;;;;4520470;28;20021;-66
2022/04/20 02:09:32;;;;;;;2.73;1.80;;;;;;;;;;4522102;28;20026;-66
2022/04/20 02:11:47;;;;;;;2.60;1.70;;;;;;;;;;4521390;28;20295;-66
2022/04/20 02:14:26;;;;;;;2.80;1.92;;;;;;;;;;4520433;28;20120;-66
2022/04/20 02:16:46;;;;;;;5.38;2.55;;;;;;;;;;4504592;28;20570;-67
2022/04/20 02:19:12;;;;;;;4.68;2.30;;;;;;;;;;4518169;28;20121;-66
2022/04/20 02:21:45;;;;;;;5.63;3.28;;;;;;;;;;4520273;28;20034;-66
2022/04/20 02:23:55;;;;;;;4.47;2.20;;;;;;;;;;4520504;28;20564;-66
2022/04/20 02:26:06;;;;;;;5.13;2.47;;;;;;;;;;4533247;28;20025;-66
2022/04/20 02:28:16;;;;;;;4.00;2.50;;;;;;;;;;4530351;28;29208;-66
2022/04/20 02:30:27;;;;;;;4.73;2.50;;;;;;;;;;4514329;28;20036;-66
2022/04/20 02:32:37;;;;;;;3.90;2.50;;;;;;;;;;4532359;28;20033;-66
2022/04/20 02:34:48;;;;;;;3.83;2.20;;;;;;;;;;4521156;28;20026;-66
2022/04/20 02:36:59;;;;;;;3.07;2.10;;;;;;;;;;4531325;28;20017;-67
2022/04/20 02:39:09;;;;;;;4.30;2.20;;;;;;;;;;4533722;28;20380;-66
2022/04/20 02:41:19;;;;;;;3.23;2.10;;;;;;;;;;4529352;28;20093;-66
2022/04/20 02:43:30;;;;;;;2.73;2.00;;;;;;;;;;4517368;28;24828;-66
2022/04/20 02:45:40;;;;;;;2.63;2.00;;;;;;;;;;4515119;28;20037;-66
2022/04/20 02:47:51;;;;;;;3.97;1.93;;;;;;;;;;4503338;28;20037;-66
2022/04/20 02:50:01;;;;;;;3.73;2.17;;;;;;;;;;4520421;28;20115;-66
2022/04/20 02:52:12;;;;;;;4.43;2.15;;;;;;;;;;4519978;28;20538;-66
2022/04/20 02:54:23;;;;;;;2.97;1.80;;;;;;;;;;4530195;28;20521;-66
2022/04/20 02:56:33;;;;;;;3.07;2.13;;;;;;;;;;4519623;28;20025;-66
2022/04/20 02:58:44;;;;;;;3.53;2.28;;;;;;;;;;4520842;28;20025;-66
2022/04/20 03:00:55;;;;;;;3.60;2.20;;;;;;;;;;4530672;28;20029;-66
2022/04/20 03:03:12;;;;;;;3.95;2.50;;;;;;;;;;4524213;28;20573;-67
2022/04/20 03:05:23;;;;;;;2.90;2.10;;;;;;;;;;4520444;28;20462;-66
2022/04/20 03:07:34;;;;;;;2.80;2.03;;;;;;;;;;4507116;28;20091;-66
2022/04/20 03:09:44;;;;;;;2.73;1.93;;;;;;;;;;4507543;28;24394;-67
2022/04/20 03:11:55;;;;;;;3.03;2.07;;;;;;;;;;4521076;28;20029;-66
2022/04/20 03:14:05;;;;;;;3.80;2.10;;;;;;;;;;4518898;28;20108;-66
2022/04/20 03:16:16;;;;;;;3.37;2.00;;;;;;;;;;4531211;28;20053;-66
2022/04/20 03:18:31;;;;;;;3.42;2.10;;;;;;;;;;4515878;28;20134;-66
2022/04/20 03:20:43;;;;;;;2.85;2.10;;;;;;;;;;4519851;28;20045;-66
2022/04/20 03:22:54;;;;;;;2.50;1.80;;;;;;;;;;4503000;28;20320;-66
2022/04/20 03:25:05;;;;;;;3.63;1.80;;;;;;;;;;4515117;28;20124;-66
2022/04/20 03:27:34;;;;;;;2.53;1.73;;;;;;;;;;4532568;28;20041;-67
2022/04/20 03:29:46;;;;;;;2.28;1.77;;;;;;;;;;4519766;28;20028;-66
2022/04/20 03:31:56;;;;;;;2.80;1.63;;;;;;;;;;4519666;28;35756;-66
2022/04/20 03:34:07;;;;;;;2.20;1.30;;;;;;;;;;4511490;28;20057;-66
2022/04/20 03:36:18;;;;;;;2.60;1.77;;;;;;;;;;4513185;28;20033;-66
2022/04/20 03:38:29;;;;;;;2.83;1.77;;;;;;;;;;4529876;28;21110;-66
2022/04/20 03:40:40;;;;;;;1.40;1.30;;;;;;;;;;4529615;28;23112;-66
2022/04/20 03:42:52;;;;;;;2.03;1.40;;;;;;;;;;4528944;28;20651;-66
2022/04/20 03:45:06;;;;;;;1.60;1.40;;;;;;;;;;4527902;28;20718;-66
2022/04/20 03:47:16;;;;;;;2.00;1.40;;;;;;;;;;4527170;28;20071;-67
2022/04/20 03:49:27;;;;;;;3.10;1.60;;;;;;;;;;4510649;28;20034;-66
2022/04/20 03:51:37;;;;;;;3.77;1.73;;;;;;;;;;4527654;28;33080;-66
2022/04/20 03:53:48;;;;;;;2.70;1.58;;;;;;;;;;4518785;28;20034;-67
2022/04/20 03:55:59;;;;;;;2.37;1.80;;;;;;;;;;4522782;28;20036;-66
2022/04/20 03:58:09;;;;;;;2.37;1.60;;;;;;;;;;4512151;28;20037;-66
2022/04/20 04:00:20;;;;;;;2.97;1.80;;;;;;;;;;4518833;28;21035;-67
2022/04/20 04:02:37;;;;;;;2.80;1.50;;;;;;;;;;4529079;28;20771;-66
2022/04/20 04:04:56;;;;;;;2.33;1.42;;;;;;;;;;4528687;28;20701;-66
2022/04/20 04:07:23;;;;;;;4.15;2.22;;;;;;;;;;4497357;28;20034;-68
2022/04/20 04:09:33;;;;;;;2.27;1.80;;;;;;;;;;4511965;28;20026;-67
2022/04/20 04:11:44;;;;;;;3.17;1.50;;;;;;;;;;4513450;28;20083;-66
2022/04/20 04:13:54;;;;;;;2.33;1.90;;;;;;;;;;4518969;28;20028;-66
2022/04/20 04:16:05;;;;;;;2.37;1.80;;;;;;;;;;4519734;28;20045;-66
2022/04/20 04:18:16;;;;;;;3.33;2.40;;;;;;;;;;4517916;28;20760;-66
2022/04/20 04:20:31;;;;;;;5.75;2.85;;;;;;;;;;4520065;28;20215;-66
2022/04/20 04:22:42;;;;;;;5.50;2.78;;;;;;;;;;4503363;28;20034;-66
2022/04/20 04:25:04;;;;;;;6.25;3.25;;;;;;;;;;4518584;28;20108;-66
2022/04/20 04:27:16;;;;;;;4.53;2.88;;;;;;;;;;4501351;28;20943;-66
2022/04/20 04:29:27;;;;;;;6.13;3.00;;;;;;;;;;4517651;28;20159;-66
2022/04/20 04:31:42;;;;;;;4.32;2.53;;;;;;;;;;4517532;28;20037;-65
2022/04/20 04:33:52;;;;;;;3.78;2.40;;;;;;;;;;4521590;28;20041;-66
2022/04/20 04:36:03;;;;;;;3.30;2.10;;;;;;;;;;4505622;28;20030;-66
2022/04/20 04:38:17;;;;;;;3.97;2.05;;;;;;;;;;4519466;28;20780;-66
2022/04/20 04:40:28;;;;;;;3.20;2.10;;;;;;;;;;4506572;28;20112;-65
2022/04/20 04:42:38;;;;;;;3.67;1.93;;;;;;;;;;4511457;28;20790;-66
2022/04/20 04:44:49;;;;;;;3.87;1.70;;;;;;;;;;4510483;28;20044;-66
2022/04/20 04:49:36;;;;;;;2.85;1.70;;;;;;;;;;4529823;28;20357;-66
2022/04/20 04:51:48;;;;;;;2.80;1.70;;;;;;;;;;4510542;28;20095;-66
2022/04/20 04:54:01;;;;;;;2.83;1.67;;;;;;;;;;4505491;28;21329;-66
2022/04/20 04:56:15;;;;;;;4.07;2.00;;;;;;;;;;4502033;28;20040;-66
2022/04/20 04:58:30;;;;;;;3.47;1.90;;;;;;;;;;4512409;28;20044;-66
2022/04/20 05:00:40;;;;;;;5.47;2.13;;;;;;;;;;4513147;28;20651;-67
2022/04/20 05:03:04;;;;;;;4.40;2.28;;;;;;;;;;4518440;28;20048;-66
2022/04/20 05:05:14;;;;;;;4.57;2.40;;;;;;;;;;4522547;28;20521;-66
2022/04/20 05:07:25;;;;;;;3.60;1.93;;;;;;;;;;4511827;28;20088;-66
2022/04/20 05:09:44;;;;;;;3.53;1.90;;;;;;;;;;4501079;28;20038;-66
2022/04/20 05:11:55;;;;;;;3.15;1.70;;;;;;;;;;4511812;28;20025;-66
2022/04/20 05:14:06;;;;;;;3.03;1.88;;;;;;;;;;4518207;28;20136;-65
2022/04/20 05:16:21;;;;;;;2.88;1.60;;;;;;;;;;4518713;28;20026;-66
2022/04/20 05:18:32;;;;;;;2.58;1.77;;;;;;;;;;4529496;28;20621;-66
2022/04/20 05:20:42;;;;;;;2.17;1.60;;;;;;;;;;4509793;28;20034;-66
2022/04/20 05:22:53;;;;;;;1.73;1.37;;;;;;;;;;4517430;28;20080;-66
2022/04/20 05:25:04;;;;;;;1.80;1.40;;;;;;;;;;4511536;28;20033;-66
2022/04/20 05:27:14;;;;;;;3.00;2.03;;;;;;;;;;4516690;28;20038;-66
2022/04/20 05:29:45;;;;;;;2.63;1.80;;;;;;;;;;4529058;28;20157;-66
2022/04/20 05:31:56;;;;;;;3.70;1.83;;;;;;;;;;4508937;28;20034;-68
2022/04/20 05:34:10;;;;;;;3.60;2.22;;;;;;;;;;4502426;28;20453;-66
2022/04/20 05:36:21;;;;;;;5.20;2.27;;;;;;;;;;4518911;28;20053;-66
2022/04/20 05:43:32;;;;;;;1.70;1.33;;;;;;;;;;4513452;28;20041;-65
2022/04/20 05:45:43;;;;;;;1.95;1.30;;;;;;;;;;4504514;28;20030;-66
2022/04/20 05:48:04;;;;;;;2.72;1.58;;;;;;;;;;4515443;28;20026;-66
2022/04/20 05:50:15;;;;;;;3.78;1.58;;;;;;;;;;4520483;28;20568;-67
2022/04/20 05:52:25;;;;;;;2.72;1.35;;;;;;;;;;4502924;28;20324;-66
2022/04/20 05:54:36;;;;;;;1.57;1.37;;;;;;;;;;4514177;28;20048;-66
2022/04/20 05:56:46;;;;;;;2.40;1.53;;;;;;;;;;4507711;28;20041;-66
2022/04/20 05:58:58;;;;;;;2.55;1.50;;;;;;;;;;4506704;28;21232;-66
2022/04/20 06:01:08;;;;;;;1.67;1.10;;;;;;;;;;4523169;28;20036;-66
2022/04/20 06:03:42;;;;;;;1.55;1.35;;;;;;;;;;4532073;28;20060;-66
2022/04/20 06:06:03;;;;;;;2.50;1.60;;;;;;;;;;4521863;28;20037;-66
2022/04/20 06:08:35;;;;;;;2.35;1.35;;;;;;;;;;4520805;28;20040;-66
2022/04/20 06:11:11;;;;;;;2.13;1.38;;;;;;;;;;4522632;28;20048;-66
2022/04/20 06:13:21;;;;;;;1.88;1.48;;;;;;;;;;4495234;28;20030;-66
2022/04/20 06:15:46;;;;;;;2.75;1.30;;;;;;;;;;4499665;28;20132;-66
2022/04/20 06:17:57;;;;;;;2.23;1.40;;;;;;;;;;4513850;28;20506;-67
2022/04/20 06:20:08;;;;;;;2.57;1.73;;;;;;;;;;4511960;28;20037;-68
2022/04/20 06:22:37;;;;;;;2.85;1.50;;;;;;;;;;4518924;28;20030;-66
2022/04/20 06:25:05;;;;;;;2.83;1.80;;;;;;;;;;4500618;28;20033;-66
2022/04/20 06:27:30;;;;;;;2.58;1.80;;;;;;;;;;4506534;28;20600;-66
2022/04/20 06:30:04;;;;;;;3.17;1.65;;;;;;;;;;4524970;28;20041;-66
2022/04/20 06:32:37;;;;;;;2.05;1.45;;;;;;;;;;4503158;28;20057;-66
2022/04/20 06:35:17;;;;;;;4.07;1.60;;;;;;;;;;4523795;28;20037;-66
2022/04/20 06:37:50;;;;;;;2.30;1.45;;;;;;;;;;4524367;28;20063;-66
2022/04/20 06:40:18;;;;;;;1.90;1.25;;;;;;;;;;4508562;28;20116;-66
2022/04/20 06:42:47;;;;;;;1.65;1.23;;;;;;;;;;4530299;28;20793;-66
2022/04/20 06:45:27;;;;;;;3.22;1.42;;;;;;;;;;4516199;28;20750;-66
2022/04/20 06:47:59;;;;;;;2.50;1.15;;;;;;;;;;4517187;28;20037;-66
2022/04/20 06:50:26;;;;;;;1.75;1.10;;;;;;;;;;4512929;28;21009;-67
2022/04/20 07:00:18;;;;;;;1.75;1.30;;;;;;;;;;4507945;28;20030;-64
2022/04/20 07:03:06;;;;;;;1.58;1.08;;;;;;;;;;4531682;28;20106;-64
2022/04/20 07:05:40;;;;;;;1.75;1.25;;;;;;;;;;4506988;28;20115;-64
2022/04/20 07:08:09;;;;;;;4.40;1.17;;;;;;;;;;4529992;28;20033;-64
2022/04/20 07:10:22;;;;;;;1.30;1.08;;;;;;;;;;4492391;28;20026;-64
2022/04/20 07:12:37;;;;;;;1.20;1.02;;;;;;;;;;4520320;28;20034;-65
2022/04/20 07:14:48;;;;;;;1.93;1.23;;;;;;;;;;4519120;28;20541;-64
2022/04/20 07:17:00;;;;;;;1.50;1.10;;;;;;;;;;4498597;28;20553;-64
2022/04/20 07:19:15;;;;;;;1.45;1.20;;;;;;;;;;4508104;28;20050;-64
2022/04/20 07:21:46;;;;;;;1.88;1.40;;;;;;;;;;4512652;28;20018;-64
2022/04/20 07:24:06;;;;;;;1.92;1.20;;;;;;;;;;4532850;28;20123;-64
2022/04/20 07:26:31;;;;;;;2.17;1.50;;;;;;;;;;4514310;28;20840;-63
2022/04/20 07:29:04;;;;;;;2.50;1.20;;;;;;;;;;4494390;28;20047;-66
2022/04/20 07:31:37;;;;;;;2.10;1.10;;;;;;;;;;4520142;28;21118;-66
2022/04/20 07:34:14;;;;;;;2.58;1.17;;;;;;;;;;4493202;28;20048;-65
2022/04/20 07:36:51;;;;;;;2.15;1.00;;;;;;;;;;4501845;28;21179;-66
2022/04/20 07:39:27;;;;;;;1.20;0.88;;;;;;;;;;4509192;28;20048;-67
2022/04/20 07:41:57;;;;;;;2.97;1.33;;;;;;;;;;4531276;28;20038;-66
2022/04/20 07:44:26;;;;;;;2.08;1.20;;;;;;;;;;4529207;28;20588;-67
2022/04/20 07:46:40;;;;;;;1.33;1.23;;;;;;;;;;4513256;28;20037;-67
2022/04/20 07:50:17;;;;;;;1.33;1.00;;;;;;;;;;4519349;28;21063;-67
2022/04/20 07:51:48;;;;;;;1.80;1.23;;;;;;;;;;4534261;28;20033;-65
2022/04/20 07:54:28;;;;;;;1.35;1.00;;;;;;;;;;4519482;28;20044;-65
2022/04/20 07:56:59;;;;;;;1.73;1.10;;;;;;;;;;4516556;28;20033;-65
2022/04/20 07:59:28;;;;;;;1.65;1.10;;;;;;;;;;4519512;28;20050;-65
2022/04/20 08:01:59;;;;;;;2.33;1.00;;;;;;;;;;4515732;28;20041;-65
2022/04/20 08:04:38;;;;;;;2.08;1.25;;;;;;;;;;4521929;28;20134;-65
2022/04/20 08:06:55;;;;;;;1.00;0.90;;;;;;;;;;4509822;28;20492;-65
2022/04/20 08:09:06;;;;;;;2.07;1.00;;;;;;;;;;4517609;28;20030;-64
2022/04/20 08:11:17;;;;;;;2.17;1.17;;;;;;;;;;4497723;28;20056;-65
2022/04/20 08:16:14;;;;;;;1.63;1.20;;;;;;;;;;4513130;28;20548;-65
2022/04/20 08:18:44;;;;;;;2.22;1.10;;;;;;;;;;4534949;28;20646;-65
2022/04/20 08:21:15;;;;;;;2.75;1.20;;;;;;;;;;4514860;28;20098;-65
2022/04/20 08:23:29;;;;;;;1.40;1.00;;;;;;;;;;4531211;28;20088;-64
2022/04/20 08:25:40;;;;;;;2.45;1.20;;;;;;;;;;4531997;28;20040;-65
2022/04/20 08:27:50;;;;;;;1.30;1.00;;;;;;;;;;4515349;28;20524;-64
2022/04/20 08:30:01;;;;;;;1.77;1.27;;;;;;;;;;4529792;28;20033;-65
2022/04/20 08:32:11;;;;;;;2.30;1.50;;;;;;;;;;4518460;28;20072;-64
2022/04/20 08:34:22;;;;;;;16.47;14.60;;;;;;;;;;4520528;28;20096;-65
2022/04/20 08:36:33;;;;;;;16.10;14.40;;;;;;;;;;4527234;28;20083;-65
2022/04/20 08:38:44;;;;;;;;;;;;;;;;;;4532085;28;20017;-66
2022/04/20 08:40:59;;;;;;;16.50;14.32;;;;;;;;;;4529400;28;19920;-65
2022/04/20 08:43:11;;;;;;;18.40;14.85;;;;;;;;;;4518653;28;20946;-65
2022/04/20 08:45:21;;;;;;;19.65;15.85;;;;;;;;;;4528512;28;20477;-65
2022/04/20 08:47:36;;;;;;;19.07;14.20;;;;;;;;;;4513632;28;20043;-65
2022/04/20 08:49:49;;;;;;;18.42;14.65;;;;;;;;;;4527542;28;20631;-64
2022/04/20 08:54:30;;;;;;;18.00;14.60;;;;;;;;;;4529185;28;20051;-65
2022/04/20 08:59:10;;;;;;;16.88;14.40;;;;;;;;;;4527963;28;20025;-63
2022/04/20 09:01:21;;;;;;;17.63;13.90;;;;;;;;;;4517011;28;20065;-61
2022/04/20 09:03:33;;;;;;;17.23;13.07;;;;;;;;;;4517651;28;20060;-61
2022/04/20 09:05:43;;;;;;;16.00;13.68;;;;;;;;;;4506913;28;20159;-62
2022/04/20 09:07:54;;;;;;;16.87;14.70;;;;;;;;;;4507556;28;20045;-63
2022/04/20 09:10:06;;;;;;;17.10;14.43;;;;;;;;;;4522185;28;20022;-63
2022/04/20 09:12:18;;;;;;;17.45;13.27;;;;;;;;;;4533939;28;20026;-62
2022/04/20 09:14:30;;;;;;;16.00;14.10;;;;;;;;;;4514807;28;20037;-63
2022/04/20 09:16:41;;;;;;;16.83;15.02;;;;;;;;;;4530242;28;20888;-62
2022/04/20 09:18:52;;;;;;;17.02;14.05;;;;;;;;;;4533645;28;20117;-63
2022/04/20 09:21:10;;;;;;;16.60;14.67;;;;;;;;;;4531580;28;20021;-62
2022/04/20 09:23:26;;;;;;;25.92;15.02;;;;;;;;;;4516039;28;20049;-63
2022/04/20 09:25:39;;;;;;;21.15;15.07;;;;;;;;;;4531523;28;20052;-62
2022/04/20 09:27:49;;;;;;;19.95;15.43;;;;;;;;;;4533087;28;20025;-63
2022/04/20 09:30:00;;;;;;;19.10;15.37;;;;;;;;;;4516592;28;20041;-63
2022/04/20 09:32:11;;;;;;;21.83;15.30;;;;;;;;;;4534228;28;20689;-63
2022/04/20 09:34:24;;;;;;;19.33;15.73;;;;;;;;;;4531253;28;28316;-62
2022/04/20 09:36:49;;;;;;;17.98;14.63;;;;;;;;;;4513643;28;20026;-62
2022/04/20 09:39:01;;;;;;;18.90;15.63;;;;;;;;;;4533212;28;20096;-62
2022/04/20 09:41:17;;;;;;;18.40;14.60;;;;;;;;;;4535494;28;20044;-63
2022/04/20 09:43:27;;;;;;;19.10;14.50;;;;;;;;;;4513319;28;20056;-62
2022/04/20 09:45:38;;;;;;;19.43;15.13;;;;;;;;;;4531681;28;20151;-63
2022/04/20 09:50:23;;;;;;;19.85;15.13;;;;;;;;;;4516487;28;20509;-62
2022/04/20 09:52:41;;;;;;;19.20;14.90;;;;;;;;;;4531640;28;20258;-63
2022/04/20 09:54:56;;;;;;;19.98;14.38;;;;;;;;;;4533407;28;20029;-62
2022/04/20 09:57:11;;;;;;;19.48;14.18;;;;;;;;;;4530969;28;20576;-63
2022/04/20 09:59:21;;;;;;;17.40;14.15;;;;;;;;;;4518455;28;20148;-63
2022/04/20 10:01:36;;;;;;;18.07;14.43;;;;;;;;;;4530389;28;20092;-63
2022/04/20 10:03:52;;;;;;;21.50;15.15;;;;;;;;;;4530970;28;20038;-63
2022/04/20 10:06:03;;;;;;;20.50;14.35;;;;;;;;;;4529988;28;20014;-63
2022/04/20 10:08:14;;;;;;;20.13;15.00;;;;;;;;;;4526082;28;20279;-63
2022/04/20 10:10:26;;;;;;;17.83;14.73;;;;;;;;;;4506522;28;20022;-63
2022/04/20 10:12:38;;;;;;;17.98;14.45;;;;;;;;;;4487860;28;20655;-64
2022/04/20 10:17:22;;;;;;;2.65;1.20;;;;;;;;;;4517896;28;20025;-63
2022/04/20 10:19:34;;;;;;;21.50;15.07;;;;;;;;;;4512915;28;20656;-63
2022/04/20 10:21:48;;;;;;;19.58;15.45;;;;;;;;;;4526875;28;20029;-63
2022/04/20 10:24:05;;;;;;;19.33;15.68;;;;;;;;;;4512778;28;20077;-63
2022/04/20 10:26:17;;;;;;;21.90;15.68;;;;;;;;;;4528476;28;20026;-63
2022/04/20 10:28:36;;;;;;;20.02;15.40;;;;;;;;;;4513001;28;20026;-62
2022/04/20 10:30:58;;;;;;;18.02;15.27;;;;;;;;;;4510763;28;20030;-63
2022/04/20 10:33:09;;;;;;;;;;;;;;;;;;4483251;28;20121;-63
2022/04/20 10:35:21;;;;;;;17.87;15.97;;;;;;;;;;4518866;28;20460;-63
2022/04/20 10:38:09;;;;;;;20.40;16.17;;;;;;;;;;4511477;28;20841;-62
2022/04/20 10:40:29;;;;;;;19.42;15.38;;;;;;;;;;4500821;28;21143;-62
2022/04/20 10:42:41;;;;;;;;;;;;;;;;;;4517120;28;20731;-62
2022/04/20 10:45:01;;;;;;;18.80;15.23;;;;;;;;;;4513342;28;20106;-62
2022/04/20 10:47:18;;;;;;;20.67;15.85;;;;;;;;;;4527973;28;20028;-62
2022/04/20 10:49:34;;;;;;;20.88;15.70;;;;;;;;;;4528279;28;20052;-63
2022/04/20 10:51:46;;;;;;;19.38;15.48;;;;;;;;;;4511104;28;20030;-62
2022/04/20 10:54:24;;;;;;;19.67;16.10;;;;;;;;;;4525366;28;20060;-62
2022/04/20 10:56:47;;;;;;;19.38;15.75;;;;;;;;;;4526011;28;20389;-62
2022/04/20 10:59:04;;;;;;;20.85;16.23;;;;;;;;;;4527833;28;20064;-62
2022/04/20 11:01:14;;;;;;;21.55;15.98;;;;;;;;;;4508538;28;20639;-62
2022/04/20 11:03:24;;;;;;;18.83;16.00;;;;;;;;;;4529561;28;20116;-61
2022/04/20 11:05:49;;;;;;;23.27;16.30;;;;;;;;;;4516500;28;40026;-61
2022/04/20 11:08:00;;;;;;;19.33;15.27;;;;;;;;;;4525908;28;20029;-62
2022/04/20 11:10:10;;;;;;;20.50;16.13;;;;;;;;;;4510747;28;20856;-62
2022/04/20 11:20:07;;;;;;;2.33;1.35;;;;;;;;;;4515639;28;20585;-62
2022/04/20 11:22:18;;;;;;;1.73;1.20;;;;;;;;;;4515475;28;20030;-61
2022/04/20 11:24:29;;;;;;;13.55;11.48;;;;;;;;;;4527795;28;20056;-61
2022/04/20 11:26:51;;;;;;;21.60;15.48;;;;;;;;;;4508866;28;20036;-63
2022/04/20 11:29:16;;;;;;;19.65;15.07;;;;;;;;;;4506936;28;20054;-62
2022/04/20 11:31:29;;;;;;;15.52;13.43;;;;;;;;;;4524486;28;20591;-61
2022/04/20 11:33:40;;;;;;;17.23;15.00;;;;;;;;;;4507821;28;20014;-62
2022/04/20 11:35:57;;;;;;;19.37;14.60;;;;;;;;;;4483138;28;20030;-61
2022/04/20 11:38:09;;;;;;;19.83;14.80;;;;;;;;;;4525563;28;20314;-62
2022/04/20 11:40:20;;;;;;;17.20;14.68;;;;;;;;;;4525499;28;20596;-62
2022/04/20 11:42:32;;;;;;;17.73;13.77;;;;;;;;;;4526311;28;20040;-61
2022/04/20 11:44:42;;;;;;;;;;;;;;;;;;4526725;28;20049;-62
2022/04/20 11:47:09;;;;;;;16.30;13.55;;;;;;;;;;4530731;28;19909;-62
2022/04/20 11:49:20;;;;;;;16.55;13.73;;;;;;;;;;4516746;28;20029;-62
2022/04/20 11:51:34;;;;;;;18.02;14.52;;;;;;;;;;4499286;28;20061;-62
2022/04/20 11:53:46;;;;;;;8.57;6.10;;;;;;;;;;4525959;28;20036;-63
2022/04/20 11:56:15;;;;;;;1.70;1.20;;;;;;;;;;4526616;28;20021;-62
2022/04/20 11:58:26;;;;;;;2.17;1.10;;;;;;;;;;4516198;28;20390;-62
2022/04/20 12:00:36;;;;;;;1.33;1.00;;;;;;;;;;4526880;28;20271;-62
2022/04/20 12:02:48;;;;;;;1.63;1.03;;;;;;;;;;4531051;28;20055;-62
2022/04/20 12:05:08;;;;;;;2.25;1.27;;;;;;;;;;4496255;28;20478;-62
2022/04/20 12:07:18;;;;;;;2.20;1.33;;;;;;;;;;4520828;28;20036;-62
2022/04/20 12:09:31;;;;;;;1.50;1.03;;;;;;;;;;4516570;28;20602;-63
2022/04/20 12:11:42;;;;;;;2.00;1.17;;;;;;;;;;4526590;28;20032;-63
2022/04/20 12:13:58;;;;;;;2.33;1.00;;;;;;;;;;4526345;28;20020;-62
2022/04/20 12:16:10;;;;;;;1.83;1.05;;;;;;;;;;4526287;28;20111;-62
2022/04/20 12:18:21;;;;;;;2.28;1.27;;;;;;;;;;4516623;28;20025;-62
2022/04/20 12:20:32;;;;;;;1.13;1.00;;;;;;;;;;4516989;28;20611;-63
2022/04/20 12:22:44;;;;;;;3.47;1.40;;;;;;;;;;4527705;28;20237;-62
2022/04/20 12:25:10;;;;;;;1.95;1.13;;;;;;;;;;4528523;28;20316;-62
2022/04/20 12:27:22;;;;;;;1.77;0.90;;;;;;;;;;4526269;28;20051;-62
2022/04/20 12:29:35;;;;;;;1.55;1.15;;;;;;;;;;4504674;28;20018;-62
2022/04/20 12:31:47;;;;;;;2.37;1.00;;;;;;;;;;4529763;28;20417;-63
2022/04/20 12:34:05;;;;;;;1.20;0.95;;;;;;;;;;4513663;28;20116;-62
2022/04/20 12:36:15;;;;;;;1.50;0.93;;;;;;;;;;4516650;28;20513;-62
2022/04/20 12:38:42;;;;;;;1.20;0.90;;;;;;;;;;4516383;28;20021;-62
2022/04/20 12:40:53;;;;;;;1.63;1.00;;;;;;;;;;4528894;28;20753;-62
2022/04/20 12:43:07;;;;;;;1.80;0.90;;;;;;;;;;4525767;28;20033;-62
2022/04/20 12:45:22;;;;;;;1.08;0.90;;;;;;;;;;4512127;28;20018;-62
2022/04/20 12:47:33;;;;;;;1.37;1.10;;;;;;;;;;4526187;28;20017;-60
2022/04/20 12:49:48;;;;;;;1.47;0.97;;;;;;;;;;4512865;28;20117;-60
2022/04/20 12:52:09;;;;;;;1.33;1.00;;;;;;;;;;4527917;28;20032;-60
2022/04/20 12:54:24;;;;;;;2.00;1.10;;;;;;;;;;4529144;28;20016;-60
2022/04/20 13:04:10;;;;;;;1.95;1.17;;;;;;;;;;4513359;28;20036;-62
2022/04/20 13:06:22;;;;;;;3.13;1.70;;;;;;;;;;4524828;28;20466;-62
2022/04/20 13:08:33;;;;;;;1.40;1.00;;;;;;;;;;4524788;28;20043;-62
2022/04/20 13:10:45;;;;;;;1.23;1.00;;;;;;;;;;4510273;28;20032;-63
2022/04/20 13:12:56;;;;;;;1.80;1.33;;;;;;;;;;4509087;28;20026;-62
2022/04/20 13:15:10;;;;;;;1.27;0.93;;;;;;;;;;4521286;28;20037;-62
2022/04/20 13:17:21;;;;;;;1.23;0.80;;;;;;;;;;4515436;28;21018;-62
2022/04/20 13:19:33;;;;;;;0.90;0.80;;;;;;;;;;4511532;28;20160;-62
2022/04/20 13:21:44;;;;;;;1.60;1.15;;;;;;;;;;4529734;28;20745;-63
2022/04/20 13:23:54;;;;;;;0.82;0.77;;;;;;;;;;4517472;28;20041;-62
2022/04/20 13:28:34;;;;;;;0.80;0.80;;;;;;;;;;4525485;28;20125;-62
2022/04/20 13:30:46;;;;;;;2.27;1.20;;;;;;;;;;4524932;28;20045;-62
2022/04/20 13:32:57;;;;;;;1.75;1.00;;;;;;;;;;4510868;28;20108;-62
2022/04/20 13:35:07;;;;;;;1.53;0.93;;;;;;;;;;4525281;28;25728;-62
2022/04/20 13:37:18;;;;;;;1.60;1.10;;;;;;;;;;4528613;28;20024;-62
2022/04/20 13:39:28;;;;;;;1.27;0.87;;;;;;;;;;4527942;28;20024;-62
2022/04/20 13:41:39;;;;;;;0.90;0.80;;;;;;;;;;4510185;28;25561;-63
2022/04/20 13:43:49;;;;;;;1.23;0.87;;;;;;;;;;4528163;28;20041;-62
2022/04/20 13:46:00;;;;;;;1.00;0.87;;;;;;;;;;4526584;28;20033;-62
2022/04/20 13:48:11;;;;;;;1.25;0.95;;;;;;;;;;4527822;28;20026;-62
2022/04/20 13:50:21;;;;;;;2.00;0.70;;;;;;;;;;4528310;28;20660;-63
2022/04/20 13:52:33;;;;;;;1.57;0.80;;;;;;;;;;4516612;28;21247;-62
2022/04/20 13:54:44;;;;;;;1.05;0.63;;;;;;;;;;4530136;28;20666;-62
2022/04/20 13:56:55;;;;;;;0.77;0.60;;;;;;;;;;4527816;28;20025;-62
2022/04/20 13:59:05;;;;;;;1.83;1.10;;;;;;;;;;4531280;28;20025;-62
2022/04/20 14:01:16;;;;;;;1.13;0.90;;;;;;;;;;4529486;28;20744;-62
2022/04/20 14:03:27;;;;;;;1.45;0.80;;;;;;;;;;4528595;28;20776;-63
2022/04/20 14:05:37;;;;;;;0.60;0.60;;;;;;;;;;4529262;28;23562;-62
2022/04/20 14:07:48;;;;;;;1.20;0.87;;;;;;;;;;4502842;28;20034;-62
2022/04/20 14:09:58;;;;;;;1.43;0.70;;;;;;;;;;4532105;28;20079;-62
2022/04/20 14:12:09;;;;;;;0.83;0.60;;;;;;;;;;4529654;28;20025;-62
2022/04/20 14:14:19;;;;;;;0.77;0.73;;;;;;;;;;4531867;28;20041;-62
2022/04/20 14:16:31;;;;;;;1.70;0.83;;;;;;;;;;4529134;28;20025;-62
2022/04/20 14:18:41;;;;;;;;;;;;;;;;;;4516338;28;20032;-62